Time;durP1;ratioP1;P1;durP2;ratioP2;P2;SDS_P1;SDS_P2;PMS_P1;PMS_P2;Temp;Humidity;BMP_temperature;BMP_pressure;BME280_temperature;BME280_humidity;BME280_pressure;Samples;Min_cycle;Max_cycle;Signal;HPM_P1;HPM_P2
2021/12/06 00:01:00;;;;;;;;;0.00;0.00;;;;;5.53;74.03;100737.97;5086552;27;45897;-81
2021/12/06 00:03:34;;;;;;;;;0.00;0.00;;;;;5.55;74.26;100743.19;5103991;27;45289;-81
2021/12/06 00:06:00;;;;;;;;;0.00;0.00;;;;;5.69;74.04;100772.88;5105283;27;45357;-82
2021/12/06 00:08:25;;;;;;;;;0.00;0.00;;;;;5.44;74.25;100725.66;5104688;27;46709;-82
2021/12/06 00:10:51;;;;;;;;;0.00;0.00;;;;;5.73;74.40;100783.31;5103285;27;45509;-82
2021/12/06 00:13:20;;;;;;;;;0.00;0.00;;;;;5.57;74.06;100760.47;5103829;27;45336;-82
2021/12/06 00:15:48;;;;;;;;;1.00;0.00;;;;;5.76;74.08;100785.97;5104963;27;45249;-82
2021/12/06 00:18:14;;;;;;;;;0.00;0.00;;;;;5.59;74.32;100770.84;5104362;27;45682;-83
2021/12/06 00:20:39;;;;;;;;;0.00;0.00;;;;;5.41;74.38;100745.34;5104645;27;45266;-82
2021/12/06 00:23:05;;;;;;;;;0.00;0.00;;;;;5.77;74.20;100800.63;5103070;27;45354;-82
2021/12/06 00:25:30;;;;;;;;;0.00;0.00;;;;;5.57;74.23;100772.50;5104242;27;45762;-81
2021/12/06 00:27:55;;;;;;;;;0.00;0.00;;;;;5.57;74.37;100762.16;5104687;27;46285;-82
2021/12/06 00:30:21;;;;;;;;;0.00;0.00;;;;;5.76;74.15;100788.56;5104304;27;45268;-81
2021/12/06 00:32:47;;;;;;;;;0.00;0.00;;;;;5.65;74.34;100770.16;5093413;27;45294;-81
2021/12/06 00:35:21;;;;;;;;;0.00;0.00;;;;;5.53;74.21;100752.59;5083192;28;45403;-81
2021/12/06 00:37:58;;;;;;;;;0.00;0.00;;;;;5.79;74.08;100797.25;5084482;27;45714;-81
2021/12/06 00:40:33;;;;;;;;;0.00;0.00;;;;;5.82;74.26;100801.66;5083644;27;45321;-81
2021/12/06 00:43:01;;;;;;;;;0.00;0.00;;;;;5.72;74.38;100786.72;5084188;27;45309;-81
2021/12/06 00:45:27;;;;;;;;;0.00;0.00;;;;;5.65;73.96;100783.06;5082428;28;45514;-82
2021/12/06 00:47:52;;;;;;;;;0.00;0.00;;;;;5.82;73.94;100807.69;5083794;27;45231;-81
2021/12/06 00:50:20;;;;;;;;;1.00;0.00;;;;;5.22;74.03;100711.25;5083731;27;45250;-81
2021/12/06 00:52:47;;;;;;;;;0.00;0.00;;;;;5.80;74.16;100811.06;5082430;28;45261;-81
2021/12/06 00:55:13;;;;;;;;;0.00;0.00;;;;;5.26;73.88;100732.84;5082152;28;45575;-81
2021/12/06 00:57:39;;;;;;;;;1.00;1.00;;;;;5.81;73.87;100829.19;5083299;27;45218;-81
2021/12/06 01:00:34;;;;;;;;;0.00;0.00;;;;;5.85;74.25;100832.72;5081984;28;45381;-81
2021/12/06 01:03:00;;;;;;;;;0.00;0.00;;;;;5.69;74.23;100815.91;5080943;28;45276;-80
2021/12/06 01:05:26;;;;;;;;;0.00;0.00;;;;;5.85;74.64;100832.72;5083246;27;45242;-81
2021/12/06 01:07:54;;;;;;;;;0.00;0.00;;;;;5.90;74.51;100838.91;5082082;28;47779;-82
2021/12/06 01:10:21;;;;;;;;;0.00;0.00;;;;;5.82;74.34;100827.50;5083564;27;45362;-83
2021/12/06 01:12:47;;;;;;;;;0.00;0.00;;;;;5.73;74.49;100825.53;5083785;27;45334;-80
2021/12/06 01:15:13;;;;;;;;;0.00;0.00;;;;;5.61;74.45;100805.34;5082377;28;45305;-80
2021/12/06 01:17:39;;;;;;;;;0.00;0.00;;;;;5.70;74.90;100825.41;5083076;28;45364;-82
2021/12/06 01:20:10;;;;;;;;;0.00;0.00;;;;;5.72;74.74;100821.16;5082121;28;45290;-80
2021/12/06 01:22:51;;;;;;;;;0.00;0.00;;;;;5.89;74.67;100852.69;5083662;27;45258;-81
2021/12/06 01:25:34;;;;;;;;;0.00;0.00;;;;;5.79;75.02;100838.59;5083486;27;45197;-80
2021/12/06 01:41:09;;;;;;;;;0.00;0.00;;;;;5.65;75.24;100851.09;5103193;27;45375;-81
2021/12/06 01:43:35;;;;;;;;;0.00;0.00;;;;;5.79;75.70;100879.06;5103265;27;45333;-81
2021/12/06 01:46:00;;;;;;;;;0.00;0.00;;;;;5.64;75.85;100864.81;5102250;27;45330;-81
2021/12/06 01:48:26;;;;;;;;;0.00;0.00;;;;;5.48;75.69;100821.31;5102119;27;47137;-81
2021/12/06 01:50:51;;;;;;;;;0.00;0.00;;;;;5.75;75.80;100875.50;5102138;27;45322;-81
2021/12/06 01:53:17;;;;;;;;;0.00;0.00;;;;;5.69;75.85;100871.03;5102482;27;45259;-82
2021/12/06 01:55:42;;;;;;;;;0.25;0.00;;;;;5.62;75.73;100865.63;5103902;27;45388;-82
2021/12/06 01:58:09;;;;;;;;;0.00;0.00;;;;;5.77;76.25;100889.34;5103210;27;46330;-82
2021/12/06 02:00:50;;;;;;;;;0.00;0.00;;;;;5.91;75.89;100915.59;5101718;27;45277;-82
2021/12/06 02:03:16;;;;;;;;;0.00;0.00;;;;;5.79;75.58;100894.56;5103007;27;45340;-82
2021/12/06 02:05:44;;;;;;;;;0.00;0.00;;;;;5.90;75.71;100907.81;5103319;27;45372;-82
2021/12/06 02:08:10;;;;;;;;;0.00;0.00;;;;;5.78;76.15;100897.97;5102974;27;46376;-82
2021/12/06 02:10:37;;;;;;;;;0.00;0.00;;;;;5.89;75.92;100911.22;5101659;27;45398;-82
2021/12/06 02:13:04;;;;;;;;;1.00;0.00;;;;;5.77;76.12;100899.69;5101341;27;45213;-82
2021/12/06 02:15:42;;;;;;;;;0.00;0.00;;;;;5.97;76.34;100925.25;5102041;27;45421;-82
2021/12/06 02:18:17;;;;;;;;;1.00;0.00;;;;;5.97;76.08;100920.06;5105168;27;45412;-82
2021/12/06 02:20:57;;;;;;;;;2.00;0.00;;;;;5.86;76.08;100906.84;5105016;27;45338;-82
2021/12/06 02:23:22;;;;;;;;;0.00;0.00;;;;;6.00;76.09;100922.75;5106059;27;45329;-82
2021/12/06 02:25:48;;;;;;;;;0.00;0.00;;;;;5.75;75.90;100877.19;5107165;27;45581;-82
2021/12/06 02:28:13;;;;;;;;;0.00;0.00;;;;;6.09;76.21;100929.94;5106742;27;45291;-83
2021/12/06 02:30:39;;;;;;;;;0.00;0.00;;;;;5.83;75.74;100883.50;5105337;27;45564;-82
2021/12/06 02:33:04;;;;;;;;;0.00;0.00;;;;;6.14;75.65;100930.97;5090859;27;45361;-83
2021/12/06 02:35:30;;;;;;;;;0.00;0.00;;;;;6.14;75.79;100928.41;5086395;27;45531;-83
2021/12/06 02:37:56;;;;;;;;;0.00;0.00;;;;;5.91;75.60;100894.94;5085905;28;45433;-83
2021/12/06 02:40:26;;;;;;;;;0.00;0.00;;;;;6.12;75.48;100926.59;5085966;27;45329;-82
2021/12/06 02:42:53;;;;;;;;;0.00;0.00;;;;;6.04;75.84;100926.38;5084707;28;45313;-83
2021/12/06 02:45:24;;;;;;;;;0.00;0.00;;;;;6.14;75.91;100936.16;5084513;28;45323;-83
2021/12/06 02:47:53;;;;;;;;;0.00;0.00;;;;;6.06;75.70;100915.22;5084430;28;46339;-83
2021/12/06 02:50:23;;;;;;;;;0.00;0.00;;;;;6.21;75.64;100937.19;5084824;28;45593;-82
2021/12/06 02:52:48;;;;;;;;;0.00;0.00;;;;;6.20;75.60;100938.03;5084302;28;45276;-83
2021/12/06 02:58:55;;;;;;;;;0.00;0.00;;;;;6.17;75.77;100923.31;5050813;27;46850;-83
2021/12/06 03:01:22;;;;;;;;;0.00;0.00;;;;;5.92;75.66;100880.31;5084307;28;45542;-83
2021/12/06 03:03:48;;;;;;;;;0.00;0.00;;;;;6.13;75.39;100926.66;5084399;28;45358;-83
2021/12/06 03:06:14;;;;;;;;;0.00;0.00;;;;;6.14;75.46;100937.84;5084662;27;45370;-83
2021/12/06 03:08:46;;;;;;;;;0.00;0.00;;;;;6.18;75.60;100950.03;5084979;27;45285;-83
2021/12/06 03:11:20;;;;;;;;;0.00;0.00;;;;;6.14;75.79;100943.91;5083884;28;45419;-84
2021/12/06 03:13:47;;;;;;;;;0.00;0.00;;;;;6.22;75.83;100957.06;5085580;27;45390;-83
2021/12/06 03:16:13;;;;;;;;;0.00;0.00;;;;;6.06;75.65;100933.31;5083702;28;45545;-82
2021/12/06 03:18:45;;;;;;;;;0.00;0.00;;;;;6.25;75.69;100964.88;5084123;28;47071;-83
2021/12/06 03:21:10;;;;;;;;;0.00;0.00;;;;;6.21;75.40;100943.25;5088016;28;45373;-83
2021/12/06 03:23:36;;;;;;;;;0.00;0.00;;;;;6.37;75.57;100964.38;5084740;28;45436;-81
2021/12/06 03:26:02;;;;;;;;;0.00;0.00;;;;;6.36;75.53;100978.16;5083981;28;45319;-83
2021/12/06 03:28:27;;;;;;;;;0.00;0.00;;;;;6.19;75.44;100938.88;5084917;27;46315;-83
2021/12/06 03:30:53;;;;;;;;;0.33;0.00;;;;;6.13;75.28;100944.75;5083269;28;45299;-83
2021/12/06 03:33:19;;;;;;;;;0.00;0.00;;;;;6.20;75.75;100979.41;5099923;27;45398;-83
2021/12/06 03:35:44;;;;;;;;;0.00;0.00;;;;;6.05;75.88;100952.25;5105396;27;45617;-82
2021/12/06 03:38:10;;;;;;;;;0.00;0.00;;;;;6.13;76.27;100965.44;5103836;27;48562;-82
2021/12/06 03:40:35;;;;;;;;;0.25;0.00;;;;;6.03;76.15;100940.94;5104912;27;45282;-83
2021/12/06 03:43:01;;;;;;;;;0.00;0.00;;;;;6.18;76.12;100948.34;5105566;27;45267;-83
2021/12/06 03:45:26;;;;;;;;;0.00;0.00;;;;;6.19;76.04;100949.22;5104899;27;45331;-83
2021/12/06 03:47:52;;;;;;;;;0.00;0.00;;;;;6.21;75.93;100948.44;5105038;27;45288;-81
2021/12/06 03:50:17;;;;;;;;;0.00;0.00;;;;;6.30;75.83;100967.63;5105030;27;45224;-82
2021/12/06 03:52:42;;;;;;;;;0.00;0.00;;;;;6.15;75.82;100958.56;5105262;27;45270;-83
2021/12/06 03:55:10;;;;;;;;;0.00;0.00;;;;;6.09;75.96;100950.63;5103374;27;45240;-82
2021/12/06 03:57:36;;;;;;;;;0.00;0.00;;;;;6.12;76.33;100955.91;5086579;27;48058;-82
2021/12/06 04:00:03;;;;;;;;;0.00;0.00;;;;;6.15;75.91;100956.00;5104360;27;45455;-83
2021/12/06 04:02:30;;;;;;;;;0.00;0.00;;;;;6.30;76.20;100981.44;5105242;27;45417;-84
2021/12/06 04:04:56;;;;;;;;;0.00;0.00;;;;;6.38;75.92;100989.44;5103280;27;45414;-83
2021/12/06 04:07:23;;;;;;;;;0.50;0.50;;;;;6.24;75.89;100981.25;5104641;27;46143;-81
2021/12/06 04:09:49;;;;;;;;;0.00;0.00;;;;;6.27;75.74;100999.44;5104623;27;45287;-81
2021/12/06 04:12:15;;;;;;;;;1.00;0.00;;;;;6.25;75.76;100998.50;5103954;27;45315;-80
2021/12/06 04:14:41;;;;;;;;;0.00;0.00;;;;;6.20;76.10;100995.81;5104743;27;45420;-81
2021/12/06 04:17:07;;;;;;;;;0.00;0.00;;;;;6.33;76.06;101014.25;5103429;27;48187;-81
2021/12/06 04:19:33;;;;;;;;;0.50;0.00;;;;;6.38;75.86;101024.75;5103030;27;45394;-80
2021/12/06 04:21:59;;;;;;;;;0.00;0.00;;;;;6.36;75.96;101021.22;5104865;27;45344;-81
2021/12/06 04:24:24;;;;;;;;;0.00;0.00;;;;;6.10;76.14;100977.38;5104726;27;45208;-82
2021/12/06 04:26:50;;;;;;;;;1.00;1.00;;;;;6.32;75.98;101020.28;5104862;27;45302;-80
2021/12/06 04:29:16;;;;;;;;;0.00;0.00;;;;;5.96;75.99;100955.41;5103917;27;45241;-81
2021/12/06 04:31:49;;;;;;;;;0.50;0.50;;;;;6.13;75.83;100998.13;5100291;27;45203;-80
2021/12/06 04:34:14;;;;;;;;;0.00;0.00;;;;;6.14;75.98;101008.53;5083746;27;45563;-80
2021/12/06 04:36:42;;;;;;;;;0.00;0.00;;;;;6.22;76.48;101008.78;5082635;28;46246;-81
2021/12/06 04:39:10;;;;;;;;;0.00;0.00;;;;;6.12;76.61;100998.97;5082932;28;45200;-81
2021/12/06 04:41:37;;;;;;;;;0.00;0.00;;;;;6.24;76.57;101004.50;5083753;27;45483;-82
2021/12/06 04:44:03;;;;;;;;;0.00;0.00;;;;;6.33;76.51;101028.06;5083645;27;45396;-81
2021/12/06 04:46:28;;;;;;;;;0.00;0.00;;;;;5.75;76.18;100940.09;5083461;27;46678;-81
2021/12/06 04:48:54;;;;;;;;;0.00;0.00;;;;;6.36;76.31;101058.31;5083501;27;45465;-81
2021/12/06 04:51:19;;;;;;;;;0.00;0.00;;;;;6.42;76.66;101058.50;5081555;28;45291;-81
2021/12/06 04:53:47;;;;;;;;;0.00;0.00;;;;;6.41;76.52;101048.13;5081246;28;45258;-81
2021/12/06 04:56:19;;;;;;;;;0.00;0.00;;;;;6.46;76.44;101051.72;5080599;28;46268;-81
2021/12/06 04:59:02;;;;;;;;;0.00;0.00;;;;;6.47;76.59;101067.28;5082361;27;45321;-81
2021/12/06 05:01:30;;;;;;;;;2.00;0.00;;;;;6.45;76.77;101057.72;5070476;28;45359;-81
2021/12/06 05:03:59;;;;;;;;;0.00;0.00;;;;;6.49;76.59;101069.06;5067935;28;45623;-81
2021/12/06 05:06:28;;;;;;;;;0.00;0.00;;;;;6.54;76.74;101068.38;5081938;28;46023;-82
2021/12/06 05:08:57;;;;;;;;;2.00;0.00;;;;;6.60;76.80;101072.84;5083694;28;45418;-81
2021/12/06 05:11:25;;;;;;;;;1.00;0.00;;;;;6.51;76.29;101050.16;5079317;28;45383;-81
2021/12/06 05:13:53;;;;;;;;;0.75;0.75;;;;;6.56;76.04;101063.25;5083896;28;45559;-81
2021/12/06 05:16:19;;;;;;;;;0.00;0.00;;;;;6.64;76.37;101082.44;5081159;28;47444;-81
2021/12/06 05:18:45;;;;;;;;;0.00;0.00;;;;;6.61;75.80;101068.56;5083094;28;45326;-81
2021/12/06 05:21:10;;;;;;;;;5.50;0.00;;;;;6.63;75.75;101080.69;5083003;28;45418;-81
2021/12/06 05:23:36;;;;;;;;;0.00;0.00;;;;;6.28;75.97;101018.44;5084420;28;45274;-81
2021/12/06 05:26:02;;;;;;;;;0.00;0.00;;;;;6.59;76.01;101074.53;5083116;28;45336;-81
2021/12/06 05:28:31;;;;;;;;;0.00;0.00;;;;;6.40;75.84;101038.63;5084386;28;45340;-81
2021/12/06 05:30:57;;;;;;;;;0.00;0.00;;;;;6.37;75.93;101044.53;5077276;28;45812;-82
2021/12/06 05:33:29;;;;;;;;;0.00;0.00;;;;;6.64;75.86;101097.09;5097445;27;45334;-82
2021/12/06 05:35:58;;;;;;;;;0.00;0.00;;;;;6.44;75.95;101080.13;5102689;27;47004;-82
2021/12/06 05:38:25;;;;;;;;;0.00;0.00;;;;;6.33;75.60;101061.69;5103790;27;45395;-82
2021/12/06 05:40:50;;;;;;;;;0.00;0.00;;;;;6.50;75.73;101102.72;5082358;27;45252;-85
2021/12/06 05:43:16;;;;;;;;;2.00;2.00;;;;;6.56;75.74;101112.38;5073789;28;45351;-83
2021/12/06 05:45:41;;;;;;;;;0.25;0.00;;;;;6.44;75.58;101087.00;5070323;28;45341;-82
2021/12/06 05:48:07;;;;;;;;;0.75;0.75;;;;;6.56;75.82;101110.66;5072194;28;45213;-82
2021/12/06 05:50:32;;;;;;;;;0.00;0.00;;;;;6.55;75.46;101118.38;5072286;28;45433;-81
2021/12/06 05:52:59;;;;;;;;;1.25;0.00;;;;;6.42;75.40;101102.47;5071106;28;45285;-83
2021/12/06 05:55:27;;;;;;;;;0.00;0.00;;;;;6.30;75.69;101090.03;5069005;28;47415;-84
2021/12/06 05:57:54;;;;;;;;;0.00;0.00;;;;;6.32;76.38;101087.50;5070063;28;45509;-83
2021/12/06 06:00:21;;;;;;;;;0.00;0.00;;;;;6.56;75.55;101121.00;5071605;28;45359;-80
2021/12/06 06:02:48;;;;;;;;;0.75;0.50;;;;;6.46;75.41;101103.44;5081700;28;45359;-81
2021/12/06 06:05:14;;;;;;;;;1.00;1.00;;;;;6.43;75.70;101121.47;5080504;28;46306;-81
2021/12/06 06:07:40;;;;;;;;;0.00;0.00;;;;;6.37;75.75;101121.28;5081984;28;45291;-81
2021/12/06 06:10:06;;;;;;;;;0.00;0.00;;;;;6.18;75.78;101095.69;5083634;28;45337;-81
2021/12/06 06:12:32;;;;;;;;;0.00;0.00;;;;;6.39;75.52;101129.94;5082820;28;45294;-81
2021/12/06 06:14:58;;;;;;;;;0.00;0.00;;;;;6.32;75.53;101114.25;5080510;28;47209;-81
2021/12/06 06:17:23;;;;;;;;;0.50;0.50;;;;;6.27;76.08;101100.28;5082366;28;45361;-81
2021/12/06 06:19:54;;;;;;;;;0.00;0.00;;;;;6.40;76.20;101121.38;5082312;28;45476;-81
2021/12/06 06:22:19;;;;;;;;;0.00;0.00;;;;;6.45;75.93;101122.38;5072954;28;45400;-80
2021/12/06 06:24:45;;;;;;;;;0.00;0.00;;;;;6.47;75.93;101129.34;5063715;28;45512;-80
2021/12/06 06:27:11;;;;;;;;;0.00;0.00;;;;;6.52;75.75;101147.63;5065569;28;45981;-80
2021/12/06 06:29:37;;;;;;;;;0.00;0.00;;;;;6.36;75.49;101135.00;5064022;28;45772;-81
2021/12/06 06:32:04;;;;;;;;;0.00;0.00;;;;;6.47;75.63;101150.03;5085228;27;45021;-81
2021/12/06 06:34:29;;;;;;;;;0.00;0.00;;;;;6.27;75.38;101123.56;5095119;27;45228;-80
2021/12/06 06:36:55;;;;;;;;;0.00;0.00;;;;;6.46;75.60;101150.00;5072877;27;45240;-80
2021/12/06 06:39:22;;;;;;;;;1.00;0.00;;;;;6.27;75.92;101126.13;5065974;28;45160;-81
2021/12/06 06:41:48;;;;;;;;;0.00;0.00;;;;;6.33;75.90;101125.44;5077298;28;45282;-80
2021/12/06 06:44:15;;;;;;;;;0.00;0.00;;;;;6.43;75.58;101143.03;5076854;28;47316;-81
2021/12/06 06:46:42;;;;;;;;;0.00;0.00;;;;;6.38;75.38;101133.38;5061086;28;45342;-83
2021/12/06 06:49:08;;;;;;;;;0.00;0.00;;;;;6.24;75.32;101115.69;5063574;27;45456;-83
2021/12/06 06:51:34;;;;;;;;;0.00;0.00;;;;;6.38;75.24;101151.47;5088328;27;45366;-81
2021/12/06 06:53:59;;;;;;;;;0.00;0.00;;;;;6.38;75.03;101154.06;5081173;27;45340;-79
2021/12/06 06:56:25;;;;;;;;;2.50;1.00;;;;;6.42;75.34;101156.78;5089640;27;45227;-81
2021/12/06 06:58:51;;;;;;;;;1.00;0.00;;;;;6.46;75.12;101173.28;5077130;28;45324;-80
2021/12/06 07:01:17;;;;;;;;;0.75;0.75;;;;;6.32;75.78;101155.63;5083755;28;45195;-81
2021/12/06 07:03:42;;;;;;;;;0.00;0.00;;;;;6.33;75.16;101149.63;5082690;28;45346;-80
2021/12/06 07:06:08;;;;;;;;;0.00;0.00;;;;;6.24;75.10;101144.13;5074076;28;46443;-80
2021/12/06 07:08:33;;;;;;;;;0.00;0.00;;;;;6.34;75.59;101164.28;5071842;28;45488;-81
2021/12/06 07:11:00;;;;;;;;;5.00;0.50;;;;;6.25;75.32;101148.47;5084655;28;45222;-81
2021/12/06 07:13:27;;;;;;;;;0.00;0.00;;;;;6.46;75.28;101181.03;5076628;28;46174;-80
2021/12/06 07:15:53;;;;;;;;;2.75;0.75;;;;;6.49;75.33;101195.78;5072439;28;46486;-80
2021/12/06 07:18:18;;;;;;;;;0.00;0.00;;;;;6.55;75.77;101206.31;5079920;27;45504;-81
2021/12/06 07:20:44;;;;;;;;;0.67;0.67;;;;;6.54;75.61;101192.53;5064166;28;45431;-79
2021/12/06 07:23:09;;;;;;;;;1.00;0.00;;;;;6.48;75.40;101192.31;5062076;28;45419;-80
2021/12/06 07:25:35;;;;;;;;;0.00;0.00;;;;;6.46;75.46;101189.69;5061642;28;45499;-81
2021/12/06 07:28:02;;;;;;;;;0.00;0.00;;;;;6.62;75.70;101197.06;5062934;28;45362;-81
2021/12/06 07:30:28;;;;;;;;;0.00;0.00;;;;;6.51;75.06;101176.00;5060401;28;45360;-79
2021/12/06 07:32:54;;;;;;;;;0.00;0.00;;;;;6.54;75.35;101196.81;5087931;27;47136;-80
2021/12/06 07:35:20;;;;;;;;;0.50;0.25;;;;;6.59;75.42;101206.47;5104931;27;45602;-79
2021/12/06 07:37:46;;;;;;;;;0.00;0.00;;;;;6.52;75.09;101183.81;5104853;27;45316;-80
2021/12/06 07:40:15;;;;;;;;;4.00;0.00;;;;;6.53;74.89;101183.03;5105543;27;45298;-79
2021/12/06 07:42:41;;;;;;;;;2.00;1.00;;;;;6.54;74.95;101189.94;5105928;27;45509;-82
2021/12/06 07:45:09;;;;;;;;;0.00;0.00;;;;;6.58;75.17;101194.38;5104546;27;45305;-79
2021/12/06 07:47:37;;;;;;;;;1.00;1.00;;;;;6.66;75.14;101204.09;5103980;27;45279;-79
2021/12/06 07:50:05;;;;;;;;;0.00;0.00;;;;;6.62;75.01;101189.31;5104090;27;45373;-79
2021/12/06 07:52:31;;;;;;;;;1.00;1.00;;;;;6.59;75.16;101183.19;5103343;27;46132;-80
2021/12/06 07:54:59;;;;;;;;;0.25;0.25;;;;;6.74;74.36;101207.78;5103794;27;45198;-82
2021/12/06 07:57:26;;;;;;;;;0.75;0.75;;;;;6.78;74.34;101212.25;5104523;27;45394;-79
2021/12/06 07:59:51;;;;;;;;;1.00;1.00;;;;;6.80;73.33;101213.16;5104312;27;45363;-79
2021/12/06 08:02:16;;;;;;;;;1.00;1.00;;;;;6.72;73.49;101202.59;5103887;27;45342;-79
2021/12/06 08:04:42;;;;;;;;;0.00;0.00;;;;;6.71;74.38;101185.28;5102018;27;46159;-80
2021/12/06 08:07:07;;;;;;;;;0.00;0.00;;;;;6.84;73.48;101199.50;5102328;27;45746;-79
2021/12/06 08:09:33;;;;;;;;;0.75;0.75;;;;;6.87;73.40;101203.03;5104486;27;45436;-79
2021/12/06 08:11:59;;;;;;;;;0.00;0.00;;;;;6.75;73.47;101190.56;5104096;27;47414;-78
2021/12/06 08:14:25;;;;;;;;;0.00;0.00;;;;;6.79;73.63;101200.19;5081819;27;45374;-75
2021/12/06 08:16:51;;;;;;;;;0.00;0.00;;;;;6.80;73.82;101202.81;5067530;28;45590;-80
2021/12/06 08:19:17;;;;;;;;;1.75;0.00;;;;;6.83;73.85;101210.69;5060301;28;45703;-76
2021/12/06 08:21:42;;;;;;;;;0.25;0.25;;;;;6.69;73.70;101188.66;5080758;28;45522;-76
2021/12/06 08:24:08;;;;;;;;;0.50;0.50;;;;;6.90;74.18;101213.47;5081160;28;45530;-78
2021/12/06 08:26:37;;;;;;;;;0.00;0.00;;;;;6.87;74.07;101196.16;5079809;27;45530;-77
2021/12/06 08:29:06;;;;;;;;;0.50;0.00;;;;;6.84;73.86;101185.69;5075885;27;45522;-77
2021/12/06 08:31:33;;;;;;;;;0.00;0.00;;;;;6.96;74.32;101191.22;5077070;27;46249;-77
2021/12/06 08:33:58;;;;;;;;;0.00;0.00;;;;;7.05;73.83;101182.00;5080036;27;45354;-77
2021/12/06 08:36:25;;;;;;;;;3.00;1.00;;;;;7.04;73.89;101188.88;5081102;27;45439;-78
2021/12/06 08:38:52;;;;;;;;;0.00;0.00;;;;;7.10;73.13;101204.63;5079820;27;45599;-76
2021/12/06 08:41:24;;;;;;;;;0.50;0.50;;;;;6.99;73.39;101180.13;5072813;28;45357;-78
2021/12/06 08:43:51;;;;;;;;;0.00;0.00;;;;;7.30;73.46;101191.41;5071460;28;45201;-77
2021/12/06 08:46:28;;;;;;;;;2.00;0.00;;;;;7.23;73.06;101155.78;5081554;28;45902;-79
2021/12/06 08:48:54;;;;;;;;;0.00;0.00;;;;;7.21;72.77;101141.91;5086148;27;45599;-80
2021/12/06 08:51:22;;;;;;;;;1.00;1.00;;;;;7.54;72.79;101197.25;5080528;27;48297;-78
2021/12/06 08:53:49;;;;;;;;;1.00;1.00;;;;;7.57;72.23;101179.19;5074553;27;45536;-80
2021/12/06 08:56:15;;;;;;;;;0.00;0.00;;;;;7.50;72.42;101161.72;5076554;27;45461;-79
2021/12/06 08:58:41;;;;;;;;;0.00;0.00;;;;;7.60;72.30;101163.72;5079841;28;45545;-79
2021/12/06 09:01:08;;;;;;;;;2.25;1.50;;;;;7.47;72.06;101139.19;5079433;27;46201;-78
2021/12/06 09:03:35;;;;;;;;;0.00;0.00;;;;;7.53;72.20;101151.44;5079235;28;45392;-78
2021/12/06 09:06:02;;;;;;;;;1.00;1.00;;;;;7.56;71.24;101164.47;5080593;28;45270;-78
2021/12/06 09:08:28;;;;;;;;;1.50;1.00;;;;;7.50;72.09;101156.53;5081222;27;45228;-78
2021/12/06 09:10:53;;;;;;;;;0.67;0.00;;;;;7.63;71.68;101175.88;5075340;27;46853;-78
2021/12/06 09:13:21;;;;;;;;;1.75;1.75;;;;;7.62;71.69;101171.56;5078375;27;45385;-78
2021/12/06 09:15:47;;;;;;;;;0.00;0.00;;;;;7.63;71.64;101165.53;5080652;27;45353;-77
2021/12/06 09:18:13;;;;;;;;;0.00;0.00;;;;;7.63;71.79;101175.88;5061358;27;45524;-79
2021/12/06 09:20:41;;;;;;;;;0.67;0.00;;;;;7.69;72.16;101183.84;5057820;28;45314;-79
2021/12/06 09:23:07;;;;;;;;;1.00;1.00;;;;;7.76;71.36;101190.94;5058882;28;45844;-77
2021/12/06 09:25:34;;;;;;;;;1.00;1.00;;;;;7.64;71.56;101191.47;5058244;28;45521;-78
2021/12/06 09:27:59;;;;;;;;;0.75;0.75;;;;;7.78;71.37;101204.81;5059164;28;45449;-78
2021/12/06 09:30:29;;;;;;;;;2.75;0.00;;;;;7.72;71.08;101184.78;5057443;28;46220;-78
2021/12/06 09:32:57;;;;;;;;;0.50;0.50;;;;;7.75;71.64;101186.56;5067226;28;45382;-78
2021/12/06 09:35:26;;;;;;;;;0.00;0.00;;;;;7.69;71.02;101186.44;5059233;28;45414;-79
2021/12/06 09:37:53;;;;;;;;;2.00;2.00;;;;;7.69;71.23;101186.44;5059445;28;45487;-78
2021/12/06 09:40:20;;;;;;;;;1.00;1.00;;;;;7.77;70.98;101203.06;5059470;28;46202;-79
2021/12/06 09:42:47;;;;;;;;;0.75;0.00;;;;;7.73;71.30;101180.50;5058624;28;45278;-80
2021/12/06 09:45:16;;;;;;;;;1.00;1.00;;;;;7.73;71.03;101185.69;5057582;28;45545;-80
2021/12/06 09:47:49;;;;;;;;;0.00;0.00;;;;;7.70;70.51;101181.28;5054265;28;45505;-80
2021/12/06 09:50:16;;;;;;;;;0.00;0.00;;;;;7.64;70.65;101185.41;5055985;28;48106;-78
2021/12/06 09:52:42;;;;;;;;;1.00;0.00;;;;;7.67;70.88;101182.91;5059211;28;45445;-78
2021/12/06 09:55:09;;;;;;;;;0.00;0.00;;;;;7.59;70.31;101173.22;5054383;28;45482;-78
2021/12/06 09:57:34;;;;;;;;;0.00;0.00;;;;;7.68;69.99;101184.66;5061617;28;45526;-80
2021/12/06 10:00:00;;;;;;;;;0.75;0.75;;;;;7.53;70.18;101173.03;5058206;28;45524;-79
2021/12/06 10:02:26;;;;;;;;;0.25;0.25;;;;;7.34;70.53;101167.34;5054731;28;45400;-78
2021/12/06 10:04:55;;;;;;;;;0.25;0.25;;;;;7.07;69.49;101144.09;5062361;28;45232;-79
2021/12/06 10:07:22;;;;;;;;;0.00;0.00;;;;;7.15;70.02;101152.97;5062688;28;45438;-79
2021/12/06 10:09:49;;;;;;;;;0.00;0.00;;;;;7.36;69.65;101175.16;5059762;28;45421;-79
2021/12/06 10:12:18;;;;;;;;;0.00;0.00;;;;;7.57;70.13;101185.22;5059625;28;45185;-77
2021/12/06 10:14:45;;;;;;;;;0.00;0.00;;;;;7.55;69.23;101165.31;5058473;28;45290;-80
2021/12/06 10:17:12;;;;;;;;;1.00;1.00;;;;;7.47;69.09;101132.28;5064097;28;45405;-79
2021/12/06 10:19:38;;;;;;;;;2.00;0.25;;;;;7.73;69.60;101159.75;5079859;27;46264;-79
2021/12/06 10:22:05;;;;;;;;;2.00;0.00;;;;;7.59;69.08;101115.31;5071366;28;45841;-79
2021/12/06 10:24:30;;;;;;;;;1.50;0.00;;;;;7.88;68.13;101146.34;5078606;28;45306;-79
2021/12/06 10:27:05;;;;;;;;;2.25;0.00;;;;;7.97;68.14;101150.88;5071083;27;45731;-79
2021/12/06 10:29:38;;;;;;;;;0.00;0.00;;;;;7.97;68.00;101135.34;5072704;27;45522;-79
2021/12/06 10:32:15;;;;;;;;;0.00;0.00;;;;;7.86;67.67;101112.59;5069847;27;45564;-79
2021/12/06 10:34:45;;;;;;;;;0.00;0.00;;;;;7.92;67.63;101148.16;5075325;27;45462;-79
2021/12/06 10:37:30;;;;;;;;;0.00;0.00;;;;;7.84;67.59;101122.03;5072073;28;45342;-79
2021/12/06 10:39:56;;;;;;;;;0.00;0.00;;;;;7.73;67.84;101088.09;5074008;27;47682;-79
2021/12/06 10:42:37;;;;;;;;;1.50;1.50;;;;;7.82;67.86;101097.81;5077352;27;45459;-80
2021/12/06 10:45:12;;;;;;;;;2.75;0.00;;;;;7.97;68.26;101117.19;5077361;28;45562;-79
2021/12/06 10:47:39;;;;;;;;;1.75;1.75;;;;;7.87;68.05;101100.50;5081835;28;45651;-79
2021/12/06 10:50:17;;;;;;;;;1.00;0.00;;;;;7.80;67.34;101107.25;5081061;28;45531;-79
2021/12/06 10:52:57;;;;;;;;;0.25;0.00;;;;;7.71;67.65;101097.53;5078217;27;45541;-79
2021/12/06 10:55:27;;;;;;;;;1.50;0.50;;;;;7.73;68.21;101103.63;5072840;28;45293;-79
2021/12/06 10:57:56;;;;;;;;;0.00;0.00;;;;;7.84;68.55;101087.47;5075658;28;45529;-76
2021/12/06 11:00:39;;;;;;;;;0.00;0.00;;;;;7.84;68.23;101070.19;5083907;27;45515;-80
2021/12/06 11:03:16;;;;;;;;;0.25;0.25;;;;;7.87;68.54;101059.03;5081346;27;45311;-79
2021/12/06 11:05:43;;;;;;;;;2.00;2.00;;;;;7.98;68.16;101060.19;5078878;27;45446;-79
2021/12/06 11:08:14;;;;;;;;;0.00;0.00;;;;;8.14;67.58;101081.28;5076704;27;45474;-80
2021/12/06 11:10:44;;;;;;;;;1.00;0.00;;;;;8.22;67.88;101069.41;5080260;28;45591;-79
2021/12/06 11:13:23;;;;;;;;;1.00;0.00;;;;;8.29;67.40;101067.81;5081730;28;45536;-80
2021/12/06 11:16:01;;;;;;;;;0.00;0.00;;;;;8.36;68.06;101061.03;5075199;27;45456;-78
2021/12/06 11:18:42;;;;;;;;;0.00;0.00;;;;;8.44;67.93;101051.72;5077128;28;45320;-78
2021/12/06 11:21:20;;;;;;;;;0.00;0.00;;;;;8.55;67.54;101071.88;5077802;28;45452;-79
2021/12/06 11:23:59;;;;;;;;;0.50;0.50;;;;;8.32;67.23;101041.06;5077618;28;45599;-81
2021/12/06 11:26:25;;;;;;;;;1.00;1.00;;;;;8.37;67.18;101058.47;5086697;27;45600;-79
2021/12/06 11:28:50;;;;;;;;;1.00;1.00;;;;;8.40;67.10;101082.75;5073733;28;45374;-79
2021/12/06 11:31:18;;;;;;;;;0.00;0.00;;;;;8.34;67.21;101086.97;5076409;28;45515;-80
2021/12/06 11:33:55;;;;;;;;;0.50;0.50;;;;;8.31;67.16;101078.22;5087858;27;45316;-79
2021/12/06 11:36:23;;;;;;;;;0.00;0.00;;;;;8.34;67.74;101063.63;5077172;27;45491;-78
2021/12/06 11:38:51;;;;;;;;;2.00;0.75;;;;;8.39;67.47;101061.09;5081403;27;45495;-78
2021/12/06 11:41:16;;;;;;;;;0.00;0.00;;;;;8.33;67.68;101037.66;5081779;28;46365;-78
2021/12/06 11:43:42;;;;;;;;;1.25;0.00;;;;;8.34;66.76;101035.09;5080691;28;45394;-79
2021/12/06 11:46:08;;;;;;;;;1.00;0.00;;;;;8.41;67.26;101036.09;5081299;28;45471;-79
2021/12/06 11:48:39;;;;;;;;;0.00;0.00;;;;;8.47;67.53;101048.31;5085126;27;45487;-79
2021/12/06 11:51:16;;;;;;;;;0.00;0.00;;;;;8.39;67.12;101031.72;5083060;27;46164;-80
2021/12/06 11:53:46;;;;;;;;;0.00;0.00;;;;;8.47;67.40;101027.56;5083174;27;45457;-81